createdAt,value
2018-06-20T00:02:24.623Z,87.50
2018-06-20T00:04:52.726Z,87.90
2018-06-20T00:07:20.753Z,88.10
2018-06-20T00:09:48.812Z,88.30
2018-06-20T00:12:16.891Z,88.70
2018-06-20T00:14:44.862Z,88.80
2018-06-20T00:17:12.884Z,88.80
2018-06-20T00:19:40.908Z,89.10
2018-06-20T00:22:08.970Z,88.80
2018-06-20T00:24:36.956Z,88.70
2018-06-20T00:27:05.008Z,88.50
2018-06-20T00:29:33.010Z,88.60
2018-06-20T00:32:01.100Z,89.10
2018-06-20T00:34:29.120Z,88.40
2018-06-20T00:36:57.119Z,88.50
2018-06-20T00:39:25.156Z,88.30
2018-06-20T00:41:53.227Z,88.50
2018-06-20T00:44:21.218Z,88.50
2018-06-20T00:46:49.211Z,88.60
2018-06-20T00:49:17.233Z,88.90
2018-06-20T00:51:45.240Z,89.00
2018-06-20T00:54:13.274Z,89.20
2018-06-20T00:56:41.258Z,89.30
2018-06-20T00:59:09.253Z,89.60
2018-06-20T01:01:37.361Z,89.50
2018-06-20T01:04:05.371Z,89.60
2018-06-20T01:06:33.375Z,89.70
2018-06-20T01:09:01.403Z,90.00
2018-06-20T01:11:29.456Z,90.00
2018-06-20T01:13:57.440Z,90.10
2018-06-20T01:16:25.430Z,90.10
2018-06-20T01:18:53.455Z,90.10
2018-06-20T01:21:21.457Z,90.10
2018-06-20T01:23:49.441Z,90.20
2018-06-20T01:26:17.429Z,90.20
2018-06-20T01:28:45.435Z,90.30
2018-06-20T01:31:13.435Z,90.40
2018-06-20T01:33:41.428Z,90.90
2018-06-20T01:36:09.571Z,90.60
2018-06-20T01:38:37.550Z,90.60
2018-06-20T01:41:05.715Z,90.50
2018-06-20T01:43:33.822Z,90.60
2018-06-20T01:46:01.820Z,90.70
2018-06-20T01:48:29.820Z,90.80
2018-06-20T01:50:58.388Z,90.80
2018-06-20T01:53:26.378Z,91.20
2018-06-20T01:55:54.382Z,90.90
2018-06-20T01:58:23.126Z,91.00
2018-06-20T02:00:51.126Z,91.00
2018-06-20T02:03:19.130Z,91.40
2018-06-20T02:05:47.158Z,90.90
2018-06-20T02:08:15.195Z,90.80
2018-06-20T02:10:43.212Z,90.80
2018-06-20T02:13:11.189Z,90.90
2018-06-20T02:15:39.189Z,90.80
2018-06-20T02:18:07.275Z,90.90
2018-06-20T02:20:35.283Z,91.20
2018-06-20T02:23:03.291Z,90.90
2018-06-20T02:25:31.311Z,90.80
2018-06-20T02:27:59.316Z,90.90
2018-06-20T02:30:27.308Z,90.90
2018-06-20T02:32:55.402Z,90.90
2018-06-20T02:35:23.436Z,90.80
2018-06-20T02:37:51.442Z,91.00
2018-06-20T02:40:19.434Z,90.90
2018-06-20T02:42:47.479Z,90.90
2018-06-20T02:45:15.472Z,90.90
2018-06-20T02:47:44.219Z,90.70
2018-06-20T02:50:13.399Z,90.90
2018-06-20T02:52:41.432Z,90.80
2018-06-20T02:55:09.547Z,90.90
2018-06-20T02:57:37.828Z,90.90
2018-06-20T03:00:05.870Z,91.00
2018-06-20T03:02:33.882Z,90.90
2018-06-20T03:05:01.879Z,90.80
2018-06-20T03:07:29.934Z,90.80
2018-06-20T03:09:57.932Z,90.80
2018-06-20T03:12:25.945Z,90.70
2018-06-20T03:14:53.932Z,90.80
2018-06-20T03:17:21.952Z,90.80
2018-06-20T03:19:49.944Z,90.80
2018-06-20T03:22:17.928Z,90.70
2018-06-20T03:24:45.915Z,90.80
2018-06-20T03:27:14.056Z,90.70
2018-06-20T03:29:42.005Z,90.90
2018-06-20T03:32:10.007Z,91.00
2018-06-20T03:34:38.006Z,90.90
2018-06-20T03:37:06.103Z,90.80
2018-06-20T03:39:34.094Z,90.80
2018-06-20T03:42:02.094Z,90.80
2018-06-20T03:44:30.099Z,90.70
2018-06-20T03:46:58.114Z,90.90
2018-06-20T03:49:26.091Z,90.50
2018-06-20T03:51:54.087Z,90.20
2018-06-20T03:54:22.104Z,90.20
2018-06-20T03:56:50.094Z,90.10
2018-06-20T03:59:18.170Z,90.10
2018-06-20T04:01:46.142Z,90.20
2018-06-20T04:04:14.143Z,90.20
2018-06-20T04:06:42.150Z,90.00
2018-06-20T04:09:12.402Z,90.10
2018-06-20T04:11:40.574Z,90.20
2018-06-20T04:14:08.553Z,90.10
2018-06-20T04:16:36.538Z,89.60
2018-06-20T04:19:04.586Z,89.60
2018-06-20T04:21:32.580Z,89.20
2018-06-20T04:24:00.572Z,89.20
2018-06-20T04:26:28.568Z,89.10
2018-06-20T04:28:56.666Z,89.10
2018-06-20T04:31:24.659Z,88.90
2018-06-20T04:33:52.657Z,88.60
2018-06-20T04:36:20.674Z,88.50
2018-06-20T04:38:48.650Z,88.20
2018-06-20T04:41:16.664Z,88.30
2018-06-20T04:43:44.698Z,88.20
2018-06-20T04:46:12.677Z,88.30
2018-06-20T04:48:40.687Z,88.20
2018-06-20T04:51:08.693Z,87.70
2018-06-20T04:53:36.704Z,87.70
2018-06-20T04:56:05.044Z,87.70
2018-06-20T05:01:00.862Z,88.30
2018-06-20T05:03:28.878Z,87.70
2018-06-20T05:05:57.004Z,87.50
2018-06-20T05:08:25.010Z,86.60
2018-06-20T05:10:53.103Z,86.60
2018-06-20T05:13:21.130Z,85.50
2018-06-20T05:15:49.124Z,84.70
2018-06-20T05:18:17.122Z,85.70
2018-06-20T05:20:45.232Z,84.90
2018-06-20T05:23:13.237Z,85.00
2018-06-20T05:25:41.225Z,84.90
2018-06-20T05:28:09.243Z,84.40
2018-06-20T05:30:37.255Z,84.30
2018-06-20T05:33:05.266Z,83.00
2018-06-20T05:35:33.266Z,82.40
2018-06-20T05:38:01.262Z,82.10
2018-06-20T05:40:29.284Z,82.50
2018-06-20T05:42:57.287Z,82.80
2018-06-20T05:45:25.328Z,83.20
2018-06-20T05:47:53.332Z,82.60
2018-06-20T05:50:21.318Z,82.50
2018-06-20T05:52:49.437Z,82.10
2018-06-20T05:55:17.427Z,81.50
2018-06-20T05:57:45.419Z,81.90
2018-06-20T06:00:13.411Z,81.20
2018-06-20T06:02:41.439Z,81.20
2018-06-20T06:05:09.482Z,81.50
2018-06-20T06:07:37.501Z,81.50
2018-06-20T06:10:09.820Z,81.40
2018-06-20T06:12:37.819Z,81.70
2018-06-20T06:15:05.815Z,81.20
2018-06-20T06:17:33.927Z,81.30
2018-06-20T06:20:01.950Z,81.20
2018-06-20T06:22:30.004Z,81.00
2018-06-20T06:24:57.994Z,80.30
2018-06-20T06:27:26.060Z,80.10
2018-06-20T06:29:54.122Z,79.80
2018-06-20T06:32:22.129Z,79.80
2018-06-20T06:34:50.150Z,79.70
2018-06-20T06:37:18.138Z,79.50
2018-06-20T06:39:47.198Z,79.90
2018-06-20T06:42:15.200Z,79.80
2018-06-20T06:44:43.329Z,79.00
2018-06-20T06:47:11.341Z,78.40
2018-06-20T06:49:39.379Z,78.00
2018-06-20T06:52:07.384Z,76.90
2018-06-20T06:54:35.387Z,77.00
2018-06-20T06:57:03.491Z,77.30
2018-06-20T06:59:31.486Z,77.50
2018-06-20T07:01:59.522Z,77.70
2018-06-20T07:04:27.506Z,77.20
2018-06-20T07:06:55.499Z,75.40
2018-06-20T07:09:23.539Z,76.70
2018-06-20T07:11:51.644Z,75.70
2018-06-20T07:14:19.647Z,76.40
2018-06-20T07:16:47.661Z,75.50
2018-06-20T07:19:15.657Z,75.50
2018-06-20T07:21:43.694Z,74.10
2018-06-20T07:24:11.861Z,74.00
2018-06-20T07:26:39.868Z,73.90
2018-06-20T07:29:07.862Z,73.30
2018-06-20T07:31:35.869Z,73.20
2018-06-20T07:34:03.881Z,73.00
2018-06-20T07:36:31.940Z,73.10
2018-06-20T07:38:59.919Z,74.00
2018-06-20T07:41:27.953Z,74.00
2018-06-20T07:43:55.947Z,73.20
2018-06-20T07:46:23.931Z,73.70
2018-06-20T07:48:51.948Z,73.70
2018-06-20T07:51:20.019Z,73.20
2018-06-20T07:53:48.063Z,74.30
2018-06-20T07:56:16.074Z,74.30
2018-06-20T07:58:49.724Z,73.80
2018-06-20T08:01:34.982Z,74.20
2018-06-20T08:04:08.584Z,73.80
2018-06-20T08:06:42.187Z,74.60
2018-06-20T08:10:17.112Z,73.50
2018-06-20T08:12:50.743Z,73.10
2018-06-20T08:15:24.228Z,73.90
2018-06-20T08:18:56.635Z,72.50
2018-06-20T08:21:24.623Z,73.10
2018-06-20T08:23:52.803Z,73.90
2018-06-20T08:26:20.788Z,73.80
2018-06-20T08:28:48.790Z,74.10
2018-06-20T08:31:16.790Z,74.00
2018-06-20T08:33:44.802Z,75.20
2018-06-20T08:36:12.786Z,74.60
2018-06-20T08:38:40.846Z,74.60
2018-06-20T08:41:08.831Z,75.50
2018-06-20T08:43:36.840Z,75.10
2018-06-20T08:46:04.890Z,74.50
2018-06-20T08:48:32.940Z,74.40
2018-06-20T08:51:00.984Z,73.80
2018-06-20T08:53:28.983Z,74.40
2018-06-20T08:55:56.982Z,74.50
2018-06-20T08:58:25.006Z,73.50
2018-06-20T09:00:58.463Z,73.60
2018-06-20T09:03:26.458Z,74.20
2018-06-20T09:06:00.089Z,73.60
2018-06-20T09:08:33.584Z,74.30
2018-06-20T09:11:07.192Z,73.90
2018-06-20T09:13:45.442Z,73.70
2018-06-20T09:16:19.157Z,74.10
2018-06-20T09:18:52.792Z,73.90
2018-06-20T09:21:20.903Z,72.50
2018-06-20T09:23:48.940Z,72.80
2018-06-20T09:26:16.977Z,72.50
2018-06-20T09:28:44.985Z,73.00
2018-06-20T09:31:13.192Z,72.60
2018-06-20T09:33:41.219Z,72.70
2018-06-20T09:36:09.960Z,73.40
2018-06-20T09:38:37.982Z,73.90
2018-06-20T09:41:06.002Z,74.20
2018-06-20T09:43:34.013Z,74.00
2018-06-20T09:46:02.057Z,73.50
2018-06-20T09:48:30.096Z,72.60
2018-06-20T09:50:59.082Z,72.80
2018-06-20T09:53:27.666Z,72.30
2018-06-20T09:55:55.677Z,71.70
2018-06-20T09:58:23.683Z,71.90
2018-06-20T10:00:57.176Z,72.50
2018-06-20T10:03:30.644Z,72.50
2018-06-20T10:06:04.225Z,71.60
2018-06-20T10:08:37.844Z,70.90
2018-06-20T10:11:11.323Z,70.90
2018-06-20T10:13:45.713Z,71.80
2018-06-20T10:16:13.896Z,71.70
2018-06-20T10:18:41.937Z,72.50
2018-06-20T10:21:10.111Z,71.30
2018-06-20T10:23:38.076Z,71.60
2018-06-20T10:26:06.100Z,70.80
2018-06-20T10:28:34.128Z,71.30
2018-06-20T10:31:02.141Z,70.50
2018-06-20T10:33:30.164Z,69.20
2018-06-20T10:35:58.205Z,69.60
2018-06-20T10:38:26.222Z,71.10
2018-06-20T10:40:54.378Z,71.60
2018-06-20T10:43:22.380Z,71.60
2018-06-20T10:45:55.957Z,70.40
2018-06-20T10:48:23.901Z,71.80
2018-06-20T10:50:51.922Z,70.90
2018-06-20T10:53:19.928Z,70.90
2018-06-20T10:55:48.026Z,70.60
2018-06-20T10:58:21.569Z,70.50
2018-06-20T11:00:54.979Z,71.00
2018-06-20T11:03:28.519Z,69.80
2018-06-20T11:06:01.974Z,68.90
2018-06-20T11:08:35.379Z,69.70
2018-06-20T11:11:09.008Z,70.40
2018-06-20T11:13:37.008Z,69.60
2018-06-20T11:16:05.308Z,68.80
2018-06-20T11:18:34.907Z,68.60
2018-06-20T11:23:30.797Z,69.00
2018-06-20T11:25:58.808Z,70.00
2018-06-20T11:28:26.916Z,70.00
2018-06-20T11:30:54.943Z,69.50
2018-06-20T11:33:22.988Z,69.30
2018-06-20T11:35:51.011Z,69.70
2018-06-20T11:38:19.063Z,69.90
2018-06-20T11:40:47.152Z,69.00
2018-06-20T11:43:15.134Z,67.90
2018-06-20T11:45:48.467Z,68.40
2018-06-20T11:48:16.755Z,67.50
2018-06-20T11:50:44.837Z,68.20
2018-06-20T11:53:12.842Z,68.70
2018-06-20T11:55:42.199Z,68.00
2018-06-20T11:58:15.704Z,67.40
2018-06-20T12:00:49.222Z,67.80
2018-06-20T12:03:22.719Z,67.50
2018-06-20T12:05:56.171Z,67.70
2018-06-20T12:08:29.690Z,66.20
2018-06-20T12:11:03.227Z,66.70
2018-06-20T12:13:36.927Z,66.40
2018-06-20T12:16:10.433Z,67.50
2018-06-20T12:18:43.907Z,68.20
2018-06-20T12:21:17.414Z,67.80
2018-06-20T12:23:50.929Z,65.40
2018-06-20T12:26:31.480Z,66.50
2018-06-20T12:29:04.998Z,65.90
2018-06-20T12:31:38.437Z,63.60
2018-06-20T12:34:11.875Z,63.00
2018-06-20T12:36:45.485Z,63.20
2018-06-20T12:39:12.797Z,63.20
2018-06-20T12:41:46.295Z,64.70
2018-06-20T12:44:19.821Z,66.20
2018-06-20T12:46:54.995Z,67.40
2018-06-20T12:49:28.612Z,66.00
2018-06-20T12:51:56.662Z,65.30
2018-06-20T12:54:24.931Z,63.80
2018-06-20T12:56:52.939Z,62.90
2018-06-20T12:59:20.953Z,62.90
2018-06-20T13:01:48.981Z,61.50
2018-06-20T13:04:16.982Z,59.40
2018-06-20T13:06:45.010Z,60.40
2018-06-20T13:09:13.395Z,61.90
2018-06-20T13:11:41.976Z,61.00
2018-06-20T13:14:10.865Z,59.90
2018-06-20T13:16:38.914Z,60.10
2018-06-20T13:19:06.942Z,61.10
2018-06-20T13:21:35.045Z,59.90
2018-06-20T13:24:03.111Z,59.90
2018-06-20T13:26:31.107Z,60.50
2018-06-20T13:28:59.121Z,61.00
2018-06-20T13:31:32.812Z,57.70
2018-06-20T13:34:06.344Z,58.00
2018-06-20T13:36:39.948Z,57.90
2018-06-20T13:40:13.625Z,58.70
2018-06-20T13:42:47.111Z,58.40
2018-06-20T13:45:20.609Z,58.40
2018-06-20T13:50:22.159Z,58.00
2018-06-20T13:52:50.547Z,57.70
2018-06-20T13:55:18.562Z,57.80
2018-06-20T13:57:46.700Z,57.20
2018-06-20T14:00:14.819Z,57.50
2018-06-20T14:02:42.803Z,56.60
2018-06-20T14:05:11.138Z,56.90
2018-06-20T14:07:39.776Z,56.40
2018-06-20T14:10:07.798Z,55.80
2018-06-20T14:12:35.798Z,55.30
2018-06-20T14:15:03.807Z,55.40
2018-06-20T14:20:05.232Z,55.50
2018-06-20T14:22:33.219Z,55.40
2018-06-20T14:25:01.198Z,55.20
2018-06-20T14:27:31.225Z,55.80
2018-06-20T14:32:32.919Z,56.60
2018-06-20T14:35:06.379Z,56.30
2018-06-20T14:37:39.829Z,55.50
2018-06-20T14:40:13.586Z,55.40
2018-06-20T14:42:47.068Z,56.10
2018-06-20T14:45:20.514Z,55.40
2018-06-20T14:47:48.752Z,55.70
2018-06-20T14:50:16.803Z,56.30
2018-06-20T14:52:44.818Z,55.50
2018-06-20T14:55:12.855Z,53.70
2018-06-20T14:57:40.886Z,54.20
2018-06-20T15:00:08.904Z,53.20
2018-06-20T15:02:37.016Z,52.80
2018-06-20T15:05:05.258Z,52.60
2018-06-20T15:07:33.307Z,53.30
2018-06-20T15:10:01.311Z,50.60
2018-06-20T15:12:29.318Z,51.70
2018-06-20T15:14:57.339Z,51.30
2018-06-20T15:17:26.423Z,51.70
2018-06-20T15:19:54.467Z,51.40
2018-06-20T15:22:22.535Z,50.80
2018-06-20T15:24:50.543Z,50.00
2018-06-20T15:27:24.000Z,50.50
2018-06-20T15:29:57.472Z,49.50
2018-06-20T15:32:31.073Z,50.60
2018-06-20T15:35:04.720Z,50.00
2018-06-20T15:37:42.229Z,50.10
2018-06-20T15:40:10.289Z,50.70
2018-06-20T15:42:38.367Z,50.90
2018-06-20T15:45:06.387Z,51.30
2018-06-20T15:47:34.398Z,51.00
2018-06-20T15:50:02.423Z,51.00
2018-06-20T15:52:30.405Z,50.80
2018-06-20T15:54:58.420Z,50.60
2018-06-20T15:57:26.450Z,51.50
2018-06-20T15:59:54.455Z,52.40
2018-06-20T16:02:22.526Z,51.60
2018-06-20T16:04:50.531Z,51.70
2018-06-20T16:07:18.524Z,50.90
2018-06-20T16:10:02.309Z,50.90
2018-06-20T16:12:30.388Z,49.80
2018-06-20T16:14:58.544Z,49.50
2018-06-20T16:17:26.807Z,49.80
2018-06-20T16:20:00.423Z,48.90
2018-06-20T16:22:33.901Z,49.00
2018-06-20T16:25:07.306Z,48.90
2018-06-20T16:27:40.911Z,49.90
2018-06-20T16:30:14.571Z,49.80
2018-06-20T16:32:42.568Z,49.80
2018-06-20T16:35:10.562Z,49.40
2018-06-20T16:37:38.624Z,49.00
2018-06-20T16:40:06.728Z,49.30
2018-06-20T16:42:34.752Z,49.00
2018-06-20T16:45:02.835Z,48.60
2018-06-20T16:47:30.916Z,49.70
2018-06-20T16:49:58.999Z,49.90
2018-06-20T16:54:54.945Z,50.00
2018-06-20T16:59:50.961Z,50.40
2018-06-20T17:02:24.579Z,50.40
2018-06-20T17:04:52.624Z,50.30
2018-06-20T17:07:20.638Z,50.10
2018-06-20T17:09:48.993Z,50.40
2018-06-20T17:12:22.502Z,49.70
2018-06-20T17:14:56.073Z,50.50
2018-06-20T17:17:29.523Z,49.40
2018-06-20T17:20:02.887Z,49.60
2018-06-20T17:22:36.503Z,50.00
2018-06-20T17:25:10.054Z,49.80
2018-06-20T17:27:38.031Z,50.00
2018-06-20T17:30:06.543Z,50.40
2018-06-20T17:32:34.702Z,50.50
2018-06-20T17:35:02.742Z,50.70
2018-06-20T17:37:31.055Z,51.00
2018-06-20T17:39:59.099Z,51.10
2018-06-20T17:42:27.406Z,51.30
2018-06-20T17:44:55.461Z,51.40
2018-06-20T17:47:23.454Z,51.40
2018-06-20T17:49:51.493Z,51.20
2018-06-20T17:52:19.767Z,51.00
2018-06-20T17:54:47.751Z,51.20
2018-06-20T17:57:15.754Z,51.70
2018-06-20T17:59:43.781Z,51.80
2018-06-20T18:02:11.755Z,52.00
2018-06-20T18:05:43.791Z,52.30
2018-06-20T18:08:17.368Z,52.20
2018-06-20T18:10:50.962Z,52.30
2018-06-20T18:13:18.998Z,52.70
2018-06-20T18:15:52.610Z,52.70
2018-06-20T18:18:20.655Z,52.90
2018-06-20T18:20:48.666Z,53.00
2018-06-20T18:23:16.679Z,53.70
2018-06-20T18:25:44.816Z,53.50
2018-06-20T18:28:12.814Z,53.60
2018-06-20T18:30:40.904Z,53.70
2018-06-20T18:33:08.910Z,53.90
2018-06-20T18:35:36.932Z,54.10
2018-06-20T18:38:05.266Z,54.20
2018-06-20T18:40:33.269Z,54.30
2018-06-20T18:43:01.284Z,54.50
2018-06-20T18:45:29.363Z,54.80
2018-06-20T18:48:02.887Z,54.40
2018-06-20T18:50:30.914Z,54.80
2018-06-20T18:52:58.912Z,54.90
2018-06-20T18:55:26.947Z,55.10
2018-06-20T18:58:00.467Z,55.40
2018-06-20T19:00:34.158Z,55.60
2018-06-20T19:03:07.711Z,55.60
2018-06-20T19:05:41.263Z,56.20
2018-06-20T19:08:14.878Z,56.70
2018-06-20T19:10:42.885Z,57.00
2018-06-20T19:13:10.990Z,57.50
2018-06-20T19:15:39.039Z,57.70
2018-06-20T19:18:07.030Z,58.30
2018-06-20T19:20:35.081Z,58.70
2018-06-20T19:23:03.139Z,59.20
2018-06-20T19:25:31.145Z,59.20
2018-06-20T19:27:59.146Z,59.40
2018-06-20T19:30:27.117Z,59.70
2018-06-20T19:32:55.387Z,59.90
2018-06-20T19:35:23.375Z,60.10
2018-06-20T19:37:51.382Z,60.20
2018-06-20T19:40:19.370Z,60.70
2018-06-20T19:42:47.518Z,60.60
2018-06-20T19:45:15.597Z,61.00
2018-06-20T19:47:43.664Z,61.20
2018-06-20T19:50:11.827Z,61.50
2018-06-20T19:52:40.029Z,61.90
2018-06-20T19:55:08.020Z,62.50
2018-06-20T19:57:36.735Z,62.60
2018-06-20T20:00:04.929Z,63.00
2018-06-20T20:02:32.974Z,63.10
2018-06-20T20:05:00.927Z,63.50
2018-06-20T20:07:28.919Z,63.90
2018-06-20T20:09:56.936Z,64.20
2018-06-20T20:12:24.916Z,64.50
2018-06-20T20:14:53.000Z,64.90
2018-06-20T20:17:21.018Z,65.20
2018-06-20T20:19:49.001Z,65.00
2018-06-20T20:22:17.011Z,65.50
2018-06-20T20:24:45.050Z,65.90
2018-06-20T20:27:13.097Z,66.30
2018-06-20T20:29:41.148Z,66.40
2018-06-20T20:32:09.111Z,66.80
2018-06-20T20:34:37.123Z,67.20
2018-06-20T20:37:05.175Z,67.70
2018-06-20T20:39:33.189Z,67.70
2018-06-20T20:42:01.192Z,68.00
2018-06-20T20:44:29.169Z,68.30
2018-06-20T20:46:57.183Z,68.50
2018-06-20T20:49:25.174Z,68.70
2018-06-20T20:51:53.146Z,69.30
2018-06-20T20:54:21.234Z,69.60
2018-06-20T20:56:49.286Z,69.80
2018-06-20T20:59:17.283Z,70.00
2018-06-20T21:01:45.292Z,70.00
2018-06-20T21:04:13.298Z,70.30
2018-06-20T21:06:41.314Z,70.60
2018-06-20T21:09:10.914Z,70.80
2018-06-20T21:11:38.998Z,71.10
2018-06-20T21:14:06.939Z,71.80
2018-06-20T21:16:34.937Z,72.00
2018-06-20T21:19:02.954Z,72.20
2018-06-20T21:21:31.097Z,72.80
2018-06-20T21:23:59.226Z,72.60
2018-06-20T21:26:27.272Z,72.20
2018-06-20T21:28:55.275Z,71.20
2018-06-20T21:31:23.656Z,71.30
2018-06-20T21:33:51.657Z,70.30
2018-06-20T21:38:48.026Z,70.30
2018-06-20T21:41:16.062Z,70.80
2018-06-20T21:43:44.123Z,70.80
2018-06-20T21:46:12.171Z,70.60
2018-06-20T21:48:40.298Z,71.40
2018-06-20T21:51:08.173Z,71.30
2018-06-20T21:53:36.170Z,72.50
2018-06-20T21:56:04.167Z,72.70
2018-06-20T21:58:32.158Z,72.70
2018-06-20T22:01:00.148Z,72.70
2018-06-20T22:03:28.130Z,72.50
2018-06-20T22:05:56.167Z,72.50
2018-06-20T22:08:24.196Z,73.30
2018-06-20T22:10:52.199Z,72.70
2018-06-20T22:13:20.191Z,73.10
2018-06-20T22:15:48.251Z,73.10
2018-06-20T22:18:16.295Z,73.20
2018-06-20T22:20:44.303Z,73.40
2018-06-20T22:23:12.292Z,72.90
2018-06-20T22:25:40.393Z,74.30
2018-06-20T22:28:08.386Z,73.30
2018-06-20T22:30:36.406Z,73.60
2018-06-20T22:33:04.411Z,73.60
2018-06-20T22:35:32.558Z,73.70
2018-06-20T22:38:00.550Z,74.70
2018-06-20T22:40:28.525Z,74.20
2018-06-20T22:42:56.534Z,74.20
2018-06-20T22:45:24.547Z,74.50
2018-06-20T22:47:52.563Z,74.70
2018-06-20T22:50:20.586Z,75.10
2018-06-20T22:52:48.582Z,75.10
2018-06-20T22:55:16.571Z,75.40
2018-06-20T22:57:44.592Z,75.70
2018-06-20T23:00:12.989Z,75.90
2018-06-20T23:02:40.988Z,76.10
2018-06-20T23:05:08.980Z,76.20
2018-06-20T23:07:37.007Z,76.40
2018-06-20T23:10:05.017Z,76.70
2018-06-20T23:12:33.036Z,77.00
2018-06-20T23:15:01.059Z,77.30
2018-06-20T23:17:29.071Z,77.40
2018-06-20T23:19:57.047Z,77.60
2018-06-20T23:22:25.044Z,77.80
2018-06-20T23:24:53.067Z,78.00
2018-06-20T23:27:21.070Z,78.20
2018-06-20T23:29:49.119Z,78.70
2018-06-20T23:32:17.175Z,78.90
2018-06-20T23:34:45.185Z,79.20
2018-06-20T23:37:13.186Z,79.40
2018-06-20T23:39:41.387Z,79.40
2018-06-20T23:42:09.378Z,79.80
2018-06-20T23:44:37.536Z,80.00
2018-06-20T23:47:05.565Z,80.00
2018-06-20T23:49:33.596Z,80.40
2018-06-20T23:52:01.949Z,80.60
2018-06-20T23:54:29.944Z,80.80
2018-06-20T23:56:57.951Z,80.90
2018-06-20T23:59:25.962Z,81.40
